Timeline UpdatesTrip UpdatesNews PostsPvt PostsTravel TipsAdmin PostsConv PostsFollowed PostsChat RequestsBlog PostsPNR Posts

Disclaimer
Search
 
 
Fri Aug 1, 2014 05:09:44 ISTHomeTrainsΣChainsAtlasPNRForumGalleryNewsFAQTripsMembersLoginFeedback
No Recent News for this Train
Other Trains in the News **new
Latest...
Scheduled to start from QLN on 13.11.2013 due to landslide at TVC.
Wed Nov 13, 2013 (12:33PM)
⇐ Return Journey: Train# 16630

16629/Malabar Express

Jan 25 2014 (8:25AM)
Change Departure Station:
Change Arrival Station:
Post a Train Travel TipPost a Train Travel Tip **new
Post a Comment/Question/Picture/VideoPost a Comment/Question/Picture/Video
Pantry/Catering
✕ NO Pantry Car
✓ Catering Avbl
RSA - Rake Sharing
16603/ 16604/ 12601/ 12602/ 16627/ 16628/ has RSA . By Srivatsa Udupa Entry# 655758
Rake/Coach Composition
Loco-SLR-GS-GS-S11-S10-S9-S8-S7-S6-S5-S4-S3-S2-S1-F1-A1-B1-B2-GS-GS-GS-SLR
Loco
ED WAP-4 from Trivandrum to Shoranur WDM-3A/3D/GOC WDG4 (ERS/ED/GOC Shed).
News    PNR    Forum    Time-Table    Availability    Fare Chart    Map    Arr/Dep History    Trips    Gallery    ΣChains    X/O    Timeline    
Travel Time: 3h 38m    9 halts    Distance: 136 km    Avg Speed: 37 km/hr
Type: Mail/Express
Zone: SR/Southern
Departs @ 20:15 (Avg 18m late)
Platform# ???
SMTWTFS
Sasthamkotta/STKT 
Arrives @ 23:53 (Avg 14m late)
Platform# 1
SMTWTFS
Ernakulam Town (North)/ERN 

9 halts. 21 intermediate Stations between Sasthamkotta and Ernakulam Town (North)

Show ALL intermediate Stations  Show Old Time-Table

#CodeStation NameX/OArrivesAvgDepartsAvgHaltPFDay#KmSpeedElevZoneAddress
1TVCTrivandrum Central (5)  -18:30+141-84.17312mSRThiruvananthapuram 695001, Kerala
2KZKKazhakkuttam (3)X18:41+518:42+61m--1-70.89620mSRKulathoor ► Kazhakootam Road Kazhakootam PO Thiruvananthapuram, Kerala
3MQUMurukkampuzha (2)  18:47+1118:48+111m--1-62.86418mSRMurukkumpuzha, Kerala
4CRYChirayinkeezhu (2)  18:55+018:56+01m--1-55.34619mSRChirayinkeezhu, Kerala
5KVUKadakavur (3)X  19:00+1319:01+141m--1-52.35520mSRKadakkavoor, Kerala
6VAKVarkala Sivagiri (3)  19:11+1519:12+161m--1-43.15652mSREdava Kappil Road, Kerala
7PVUParavur (3)X  19:24+1719:25+171m--1-31.83018mSRParavoor, Kerala
8QLNKollam Junction (6)X  19:50+1219:55+125m21-19.46116mSRKollam 0474-2746194, Kerala
9STKT»Sasthamkotta (2)»X  20:14+1620:15+181m--10.0510mSRKollam Dist, Kerala
10KPYKarunagappalli (2)X  20:24+2120:25+251m--17.63612mSRKollam Dist, Kerala
11KYJKayamkulam Junction (5)X  20:48+2020:50+202m--121.45111mSRAlappuzha Ph;0479-2442042, Kerala
12MVLKMavelikara (3)  20:59+2121:00+221m2129.04013mSRMavelikkara Ph: 0479-2302249, Kerala
13CNGRChengannur (3)  21:19+1521:20+181m3141.6606mSRPh: 0479-2452340, Kerala
14TRVLTiruvalla (2)  21:29+1921:30+201m--150.65227mSRPh: 0469-2601314, Kerala
15CGYChanganassery (3)  21:39+2321:40+251m--158.53611mSRPh: 0481- 2420108, Kerala
16KTYMKottayam (3)  22:10+1422:15+185m--176.35515mSRTel: 0481 2563535, Kerala
17PVRDPiravom Road  22:49+2322:50+241m--1107.63912mSRKottayam, Kerala
18TRTRThrippunithura (2)  23:19+1723:20+171m--1126.6185mSRErnakulam, Kerala
19ERN•Ernakulam Town (North) (2)•  23:53+1423:58+165m11136.3539mSRTel: 0484 2395198, Kerala
20AWYAluva (3)X  00:17+2600:20+253m32153.15012mSRPh: 0484-2624141, Kerala
21AFKAngamaly for Kalady (3)X  00:31+2700:32+271m--2162.45416mSRPhone: 0484-2452340, Kerala
22CKIChalakkudy (3)  00:49+2700:50+271m22177.6439mSRPh: 0480- 2701368, Kerala
23IJKIrinjalakkuda (2)X  00:59+2801:00+291m--2184.05318mSRKalletumkara, Kerala
24TCRThrissur (4)  01:27+2801:30+293m22207.7266mSRThrissur Tel: 0487 2423150, Kerala
25SRRShoranur Junction (7)  02:45+602:55+2210m--2240.75026mSRShoranur ph.no 0466-2222913, Kerala
26PTBPattambi (2)  03:09+2403:10+241m--2252.25821mSRPattambi, Kerala
27KTUKuttippuram (2)  03:29+2303:30+251m--2270.75317mSRKuttippuram, Kerala
28TIRTirur (3)  03:47+2403:48+261m--2285.8539mSRTel: 0494 2422240, Kerala
29TATanur (3)  03:57+2803:58+281m--2293.85411mSRMalappuram, Kerala
30PGIParappangadi (2)  04:07+2904:08+301m--2301.95719mSRParappanangadi, Kerala
31FKFerok (2)  04:24+2804:25+291m--2317.03019mSRFeroke, Kerala
32CLTKozhikode Main (4)  04:45+2504:50+285m--2327.06111mSRCalicut Tel: 0495 2701234, Kerala
33QLDKoyilandy (3)  05:14+3005:15+311m--2351.36911mSRQuilandi, Kerala
34BDJVadakara (2)X  05:34+2905:35+301m22373.38611mSRCalicut / Station Ph No : 0496-2524254, Kerala
35MAHEMahe (2)X  05:44+3505:45+351m--2386.16216mSRMahe, Puducherry
36TLYThalassery (2)  05:54+3605:55+371m12395.4319mSRKannur, Kerala
37CANKannur Main (3)  06:35+1906:40+235m12416.14614mSRKannur Tel: 0497 2705555, Kerala
38VAPMValapattanam (2)  06:49+2606:50+261m--2423.0658mSRKannur District, Kerala
39KPQKannapuram (2)  06:57+2706:58+271m12430.5569mSRKannur District, Kerala
40PAZPayangadi (2)  07:06+2707:07+281m12438.08912mSRKannur District, Kerala
41ELMEzhimala  07:13-07:14-1m--2446.92815mSRKannur District, Kerala
42PAYPayyanur (3)X  07:20+2807:21+301m--2449.7620mSRKannur District, Kerala
43TKQTrikkarippur  07:27-07:28-1m--2455.97313mSRKasargod district, Kerala
44CHVCharvattur (3)  07:35+3507:36+371m--2464.54514mSRKasaragod district, Kerala
45NLENileshwar (2)X  07:43+4007:44+401m--2469.75612mSRNileswaram, Kerala
46KZEKanhangad (3)XO  07:54+4207:55+431m--2479.05915mSRKanhangad, Kerala
47BFRBekal Fort (2)O  08:04-08:05-1m--2487.84211mSRPallikere, Kerala
48KQKKottikkulam (2)X  08:12+4108:13+411m--2492.63625mSRBekal, Kerala
49KGQKasaragod (3)O  08:29+3508:30+361m--2502.18118mSRTel: 04994 220800, Kerala
50KMQKumbala (2)XO  08:39+3908:40+391m--2514.39823mSRKumbla, Kerala
51UAAUppala (2)  08:46+4208:47+441m--2524.14616mSRKasaragod District, Kerala
52MJSManjeshwar (3)  08:56+4408:57+441m--2531.08912mSRManjeshwar, Kerala
53ULLUllal (2)X  09:04+4909:05+491m--2541.3726mSRSomeshwar, Karnataka
54MAQMangalore Central (4)  10:05+9---2547.8-14mSRMangalore 575001, Karnataka
Scroll to Top
Scroll to Bottom